MCFADDIN TX US current weather conditions

sailwx.info

Wind from 049 at 10 knots gusting 16

Air temperature 15.0° C
Dewpoint 0.8° C

Last reported at 2019-Dec-11 20:35 UTC.
Time now 2019-Dec-11 21:17 UTC

Location: N 29°42' W 094°07'.
View on Google Maps.

See reports from other nearby stations

  
Tides and Currents Weather Stations Pressure Air Temp Water Temp Dewpoint Dewpoint Depression Visibility Wind Speed Wind Dir Waves Ship Positions
date/time (UTC)wind fromknots sea level pressurealtimeterstation pressurevisibilityair tempwater tempwave heightnotes
2019-Dec-11 20:35 049 10 gusting 16 15.0
2019-Dec-11 19:35 043 9 gusting 16 14.4
2019-Dec-11 18:35 037 8 gusting 15 13.3
2019-Dec-11 17:35 019 10 gusting 15 11.7
2019-Dec-11 16:35 023 9 gusting 14 10.0
2019-Dec-11 15:35 021 10 gusting 14 8.3
2019-Dec-11 14:35 021 12 gusting 18 6.7
2019-Dec-11 13:35 013 8 gusting 13 5.6
2019-Dec-11 12:35 021 9 gusting 15 6.1
2019-Dec-11 11:35 015 9 gusting 16 6.1
2019-Dec-11 10:35 019 9 gusting 16 6.7
2019-Dec-11 09:35 012 9 gusting 18 6.7
2019-Dec-11 08:35 007 10 gusting 17 7.2
2019-Dec-11 07:35 009 8 gusting 15 7.2
2019-Dec-11 06:35 010 9 gusting 16 7.8
2019-Dec-11 05:35 011 9 gusting 18 8.3
2019-Dec-11 04:35 009 11 gusting 17 8.3
2019-Dec-11 03:35 006 11 gusting 18 8.3
2019-Dec-11 02:35 024 11 gusting 19 8.9
2019-Dec-11 01:35 028 10 gusting 19 8.9
2019-Dec-11 00:35 025 11 gusting 19 8.9
2019-Dec-10 23:35 028 11 gusting 18 9.4
2019-Dec-10 22:35 024 10 gusting 18 9.4
2019-Dec-10 21:35 031 15 gusting 31 10.0
2019-Dec-10 20:35 018 11 gusting 21 10.6
2019-Dec-10 19:35 017 13 gusting 23 10.6
2019-Dec-10 18:35 016 13 gusting 26 11.1
2019-Dec-10 17:35 016 13 gusting 20 12.2
2019-Dec-10 16:35 024 13 gusting 26 12.8
2019-Dec-10 15:35 021 14 gusting 25 12.8
2019-Dec-10 14:35 005 17 gusting 25 12.8
2019-Dec-10 13:35 006 11 gusting 23 12.8
2019-Dec-10 12:35 014 15 gusting 24 13.3
2019-Dec-10 11:35 359 13 gusting 22 15.0
2019-Dec-10 10:35 167 6 gusting 9 21.1
2019-Dec-10 09:35 153 5 gusting 8 20.6
2019-Dec-10 08:35 135 2 gusting 4 20.0
2019-Dec-10 07:35 146 3 gusting 5 20.6
2019-Dec-10 06:35 141 1 gusting 3 20.6
2019-Dec-10 05:35 143 3 gusting 6 20.6
2019-Dec-10 04:35 153 6 gusting 8 20.6
2019-Dec-10 03:35 148 5 gusting 8 20.6
2019-Dec-10 02:35 163 3 gusting 5 21.1
2019-Dec-10 01:35 166 4 gusting 7 21.1
2019-Dec-10 00:35 161 4 gusting 7 21.1
2019-Dec-09 23:35 167 3 gusting 6 21.1
2019-Dec-09 22:35 175 6 gusting 11 23.3
2019-Dec-09 21:35 196 6 gusting 10 23.9